Sunday, August 19, 2018, 1:54 PM EDT
Back to Local

KPEO, Penn Yan Airport

Location: Penn Yan, NY, United States Lat: 42.65
Local Time: 1:54 PM EDT (17:54 GMT) Lon: -77.05
Time Zone: US/Eastern Elev: 977 ft

Show me the last for .
Show Decoded

2018-08-19 12:53 METAR KPEO 191653Z AUTO 00000KT 10SM FEW023 BKN042 22/16 A3005 RMK AO2 SLP171
                 T02220161 =
2018-08-19 11:53 METAR KPEO 191553Z AUTO 00000KT 10SM FEW019 SCT040 21/17 A3005 RMK AO2 SLP170
                 T02110167 =
2018-08-19 10:53 METAR KPEO 191453Z AUTO VRB03KT 10SM SCT017 SCT022 22/17 A3005 RMK AO2 SLP171
                 T02170172 51006 =
2018-08-19 09:53 METAR KPEO 191353Z AUTO 00000KT 10SM OVC047 20/17 A3005 RMK AO2 SLP170 T02000167
                 =
2018-08-19 08:53 METAR KPEO 191253Z AUTO 00000KT 10SM BKN046 19/16 A3004 RMK AO2 SLP167 T01940161
                 =
2018-08-19 07:53 METAR KPEO 191153Z AUTO 00000KT 10SM OVC045 18/16 A3003 RMK AO2 SLP165 70014
                 T01830161 10183 20172 53015 =
2018-08-19 06:53 METAR KPEO 191053Z AUTO 00000KT 10SM OVC048 17/16 A3001 RMK AO2 SLP159 T01720156
                 =
2018-08-19 05:53 METAR KPEO 190953Z AUTO 00000KT 10SM OVC048 17/16 A3000 RMK AO2 SLP153 T01720156
                 =
2018-08-19 04:53 METAR KPEO 190853Z AUTO 00000KT 10SM OVC048 17/16 A2999 RMK AO2 SLP149 T01720156
                 53004 =
2018-08-19 03:53 METAR KPEO 190753Z AUTO 00000KT 10SM OVC048 18/16 A2998 RMK AO2 SLP147 T01780161
                 =
2018-08-19 02:53 METAR KPEO 190653Z AUTO 00000KT 10SM OVC043 18/16 A2997 RMK AO2 SLP143 T01780156
                 =
2018-08-19 01:53 METAR KPEO 190553Z AUTO 00000KT 10SM OVC041 17/16 A2997 RMK AO2 SLP146 T01720156
                 10194 20167 58002 =
2018-08-19 00:53 METAR KPEO 190453Z AUTO 00000KT 10SM FEW043 17/15 A2998 RMK AO2 SLP146 T01670150
                 402280167 =
2018-08-18 23:53 METAR KPEO 190353Z AUTO 00000KT 10SM FEW036 17/16 A2998 RMK AO2 SLP147 T01720156
                 =
2018-08-18 22:53 METAR KPEO 190253Z AUTO 33003KT 10SM SCT039 18/16 A2998 RMK AO2 SLP147 T01780161
                 50004 =
2018-08-18 21:53 METAR KPEO 190153Z AUTO VRB03KT 10SM OVC040 19/16 A2999 RMK AO2 SLP150 T01890161
                 =
2018-08-18 20:53 METAR KPEO 190053Z AUTO 33004KT 10SM OVC039 19/16 A2998 RMK AO2 SLP147 T01890161
                 =
2018-08-18 19:53 METAR KPEO 182353Z AUTO 33004KT 10SM OVC037 19/16 A2997 RMK AO2 SLP143 T01940156
                 10222 20194 52010 =
2018-08-18 18:53 METAR KPEO 182253Z AUTO 34006KT 10SM OVC032 20/15 A2996 RMK AO2 SLP140 T02000150
                 =
2018-08-18 17:53 METAR KPEO 182153Z AUTO 35006G14KT 10SM OVC032 21/15 A2995 RMK AO2 SLP136
                 T02060150 =
2018-08-18 16:53 METAR KPEO 182053Z AUTO 34009KT 10SM BKN031 21/16 A2994 RMK AO2 SLP132 T02110156
                 56003 =
2018-08-18 16:09 METAR KPEO 182009Z AUTO 34008G14KT 310V040 10SM SCT023 OVC031 22/16 A2994 RMK
                 AO2 T02170161 =
2018-08-18 15:53 METAR KPEO 181953Z AUTO 35007G17KT 10SM SCT020 OVC029 21/16 A2994 RMK AO2 SLP133
                 T02110161 =
2018-08-18 15:12 METAR KPEO 181912Z AUTO 35007KT 330V030 10SM FEW014 FEW022 OVC029 22/17 A2994
                 RMK AO2 T02170167 =
2018-08-18 15:00 METAR KPEO 181900Z AUTO 34007KT 300V020 10SM FEW014 BKN030 22/17 A2994 RMK AO2
                 T02170167 =
2018-08-18 14:53 METAR KPEO 181853Z AUTO 35006KT 10SM SCT014 BKN023 OVC030 21/17 A2994 RMK AO2
                 SLP133 T02110172 =
2018-08-18 14:12 METAR KPEO 181812Z AUTO 33008KT 10SM FEW010 BKN015 OVC021 20/17 A2995 RMK AO2
                 T02000167 =

Support USWX by starting your Amazon purchase here.